NCAR-RAP Real-Time Weather Data

Output produced by METARs form (21 May 2019  10:28 UTC)
found at http://weather.rap.ucar.edu/surface/
 
RJFK 211000Z 32008KT 9999 FEW040 19/08 Q1006 RMK 1CU040 A2972 VOLCANIC ASH CLOUD S
RJFK 210900Z 32014KT CAVOK 21/06 Q1005 RMK A2970 VOLCANIC ASH CLOUD S
RJFK 210800Z 32014KT 9999 FEW020 23/04 Q1005 RMK 1CU020 A2969 VOLCANIC ASH CLOUD S
RJFK 210700Z 33014KT 9999 FEW020 24/05 Q1005 RMK 1CU020 A2968 VOLCANIC ASH CLOUD S
RJFK 210600Z 31017KT 9999 FEW020 24/03 Q1005 RMK 1CU020 A2969 VOLCANIC ASH CLOUD S
RJFK 210500Z 31015KT 9999 FEW030 25/05 Q1005 RMK 1CU030 A2968
RJFK 210400Z 33014KT 9999 FEW020 24/05 Q1005 RMK 1CU020 A2968 VOLCANIC ASH CLOUD S
RJFK 210300Z 33012KT 310V010 9999 FEW030 24/04 Q1005 RMK 1CU030 A2969 VOLCANIC ASH CLOUD S
RJFK 210200Z 35011KT 310V020 9999 FEW020 22/07 Q1006 RMK 1CU020 A2971 VOLCANIC ASH CLOUD S
RJFK 210100Z 33011KT 300V010 CAVOK 20/07 Q1006 RMK A2971
RJFK 210000Z 35008KT 320V020 9999 FEW020 19/08 Q1006 RMK 1CU020 A2971 VOLCANIC ASH CLOUD S
RJFK 202300Z 35008KT 300V030 9999 FEW010 17/10 Q1006 RMK 1CU010 A2971
RJFK 202200Z 35006KT 9999 FEW010 SCT/// 14/11 Q1005 RMK 1CU010 A2970
RJFK 202100Z 32009KT 9999 FEW010 SCT/// 12/10 Q1005 RMK 1CU010 A2969
RJFK 201200Z 30010KT 9999 FEW010 BKN015 18/17 Q1005 RMK 1CU010 7CU015 A2970
RJFK 201100Z 31007KT 9999 FEW001 BKN045 BKN070 19/18 Q1005
RJFK 201000Z 35005KT 9999 -SHRA FEW001 SCT020 BKN040 18/18 Q1005 RMK 1ST001 3CU020 7CU040 A2969
RJFK 200900Z 33009KT 9999 -SHRA FEW001 SCT010 BKN015 19/19 Q1005 RMK 1ST001 3CU010 7CU015 A2968
RJFK 200800Z 29007KT 5000 R34/2000N -SHRA BR FEW001 BKN010 BKN020 20/19 Q1005 RMK 1ST001 6CU010 7CU020 A2968
RJFK 200737Z 29009KT 5000 -SHRA BR FEW004 BKN007 BKN020 20/19 Q1004 RMK 2ST004 6ST007 7CU020 A2967
RJFK 200706Z 27007KT 4000 -SHRA BR FEW005 BKN015 BKN030 20/20 Q1004 RMK 2ST005 6CU015 7CU030 A2967
RJFK 200700Z 27008KT 5000 -SHRA BR FEW003 SCT007 BKN020 21/20 Q1004 RMK 1ST003 3ST007 7CU020 A2967
RJFK 200600Z 26007KT 8000 -SHRA FEW005 SCT007 BKN025 21/21 Q1004 RMK 1ST005 3ST007 6CU025 A2967
RJFK 200550Z 26008KT 220V300 7000 -SHRA FEW005 SCT007 BKN012 22/20 Q1004 RMK 1ST005 3ST007 5CU012 A2967
RJFK 200533Z 25006KT 5000 -SHRA BR FEW004 BKN007 BKN015 22/21 Q1005 RMK 1ST004 5ST007 6CU015 A2968
RJFK 200500Z 26006KT 5000 -SHRA BR FEW005 SCT015 BKN025 22/21 Q1005 RMK 2ST005 3CU015 6CU025 A2969
RJFK 200434Z 25006KT 220V290 5000 -SHRA BR FEW005 SCT008 BKN015 22/21 Q1005 RMK 2ST005 3ST008 5CU015 A2969
RJFK 200414Z 25008KT 5000 -SHRA BR FEW005 BKN008 BKN015 22/21 Q1005 RMK 2ST005 5ST008 6CU015 A2970
RJFK 200400Z 25010KT 210V290 6000 VCSH FEW006 SCT010 BKN040 23/21 Q1005 RMK 1ST006 4CU010 6CU040 A2970
RJFK 200300Z 19005KT 150V280 6000 FEW030 SCT040 BKN050 25/21 Q1006 RMK 1CU030 3CU040 7SC050 A2971
RJFK 200200Z 23008KT 9000 FEW015 BKN030 BKN050 25/21 Q1007 RMK 1CU015 5CU030 6SC050 A2974
RJFK 200100Z 17003KT 110V260 9999 FEW010 SCT013 BKN150 25/21 Q1006 RMK 1CU010 3CU013 5AC150 A2972
RJFK 200000Z 10003KT 040V130 9999 FEW007 SCT010 BKN/// 23/21 Q1006 RMK 1ST007 3CU010 A2973
RJFK 192343Z 09003KT 040V130 9999 FEW003 SCT008 BKN/// 22/21 Q1007 RMK 1ST003 3ST008 A2974
RJFK 192328Z 13003KT 040V170 9999 FEW003 BKN008 22/22 Q1007 RMK 1ST003 5ST008 A2974
RJFK 192300Z 04003KT 9999 BCFG FEW003 BKN/// 22/22 Q1006
RJFK 192236Z VRB02KT 8000 BCFG SCT002 BKN010 20/20 Q1006 RMK 4ST002 6CU010 A2973 1600N-NE FG N-SE
RJFK 192228Z 06002KT 5000 R34/P2000N BCFG BR BKN002 BKN010 20/20 Q1007 RMK 5ST002 6CU010 A2974 1500N-NE FG N-SE
RJFK 192218Z VRB01KT 3000 R34/P2000N BCFG BR BKN002 BKN015 20/20 Q1006 RMK 5ST002 6CU015 A2973 1000N-E FG N-SE
RJFK 192206Z 00000KT 2000 R34/1200VP2000U BCFG BR BKN002 BKN015 20/20 Q1007 RMK 5ST002 6CU015 A2974 FG ALL QUAD
RJFK 192202Z 00000KT 1600 R34/0400VP2000U BCFG BR SCT002 BKN006 20/20 Q1007 RMK 3ST002 5ST006 A2974 FG ALL QUAD
RJFK 192200Z 00000KT 1600 R34/0275VP2000U BCFG BR SCT002 BKN006 20/20 Q1007 RMK 3ST002 5ST006 A2974 FG ALL QUAD
RJFK 192100Z 05002KT 0200 R34/0200V0650D FG FEW001 SCT004 BKN/// 19/19 Q1006
RJFK 192041Z 30001KT 0800 R34/0450V0700N FG FEW001 BKN/// 19/19 Q1006 RMK 2ST001 A2973
RJFK 192034Z VRB02KT 0600 R34/0450V0600N FG FEW001 BKN/// 19/19 Q1006 RMK 2ST001 A2973
RJFK 191200Z 10006KT 9999 -SHRA FEW008 SCT020 BKN035 21/20 Q1011 RMK 1ST008 4CU020 7CU035 A2985
RJFK 191100Z 10011KT 9999 SCT007 BKN010 BKN030 20/20 Q1010 RMK 3ST007 5CU010 7CU030 A2984
RJFK 191000Z 09010KT 9999 VCSH FEW007 SCT030 BKN060 20/20 Q1010 RMK 2ST007 3CU030 7SC060 A2983
RJFK 190900Z 09009KT 050V120 9999 -SHRA FEW005 SCT025 BKN050 20/20 Q1010 RMK 1ST005 3CU025 7SC050 A2984
RJFK 190800Z 09010KT 5000 -SHRA BR FEW006 SCT009 BKN025 21/20 Q1010 RMK 2ST006 4ST009 7CU025 A2984
RJFK 190700Z 09010KT 060V120 7000 R34/2000N SHRA FEW008 SCT010 BKN020 21/20 Q1010 RMK 1ST008 4CU010 6CU020 A2984
RJFK 190600Z 08009KT 060V120 9999 -SHRA FEW005 BKN010 BKN020 22/21 Q1010 RMK 1ST005 5CU010 6CU020 A2984
RJFK 190500Z 11011KT 070V140 9999 -SHRA FEW005 BKN012 BKN020 22/20 Q1011 RMK 1ST005 5CU012 6CU020 A2985 MOD TURB OBS AT 0443Z 15NM NE OF KGE 7000FT B738
RJFK 190400Z 11012KT 9999 -SHRA FEW005 BKN012 BKN025 22/20 Q1011 RMK 1ST005 5CU012 6CU025 A2986
RJFK 190300Z 10013KT 050V140 9999 -SHRA FEW005 BKN012 BKN025 22/20 Q1011 RMK 1ST005 5CU012 6CU025 A2987
RJFK 190200Z 10012KT 8000 -SHRA FEW003 BKN010 BKN025 21/20 Q1011 RMK 1ST003 5CU010 6CU025 A2988
RJFK 190100Z 10012KT 080V140 8000 -SHRA FEW003 BKN010 BKN035 21/20 Q1011 RMK 1ST003 5CU010 6CU035 A2988
RJFK 190000Z 10010KT 060V140 9999 -SHRA FEW003 SCT010 BKN025 20/20 Q1011 RMK 2ST003 3CU010 6CU025 A2987
RJFK 182300Z 09008KT 060V120 8000 -SHRA FEW005 SCT010 BKN025 20/20 Q1011 RMK 1ST005 3CU010 6CU025 A2987